Time;durP1;ratioP1;P1;durP2;ratioP2;P2;SDS_P1;SDS_P2;PMS_P1;PMS_P2;Temp;Humidity;BMP_temperature;BMP_pressure;BME280_temperature;BME280_humidity;BME280_pressure;Samples;Min_cycle;Max_cycle;Signal;HPM_P1;HPM_P2
2022/06/04 00:00:24;;;;;;;0.50;0.50;;;13.70;1.40;;;14.52;100.00;95392.55;646953;216;31609;-73
2022/06/04 00:03:06;;;;;;;1.00;1.00;;;13.50;1.40;;;14.44;100.00;95391.71;648162;216;42734;-74
2022/06/04 00:05:51;;;;;;;0.80;0.50;;;13.40;1.40;;;14.55;100.00;95389.25;647049;212;31724;-73
2022/06/04 00:08:33;;;;;;;1.50;1.40;;;13.60;1.40;;;14.49;100.00;95389.03;652349;212;31587;-73
2022/06/04 00:16:49;;;;;;;0.55;0.40;;;13.00;1.40;;;14.15;100.00;95394.89;645823;216;35209;-74
2022/06/04 00:19:30;;;;;;;1.60;0.30;;;13.10;1.40;;;14.17;100.00;95399.83;645684;216;31478;-75
2022/06/04 00:22:12;;;;;;;0.90;0.80;;;13.10;1.40;;;14.26;100.00;95404.08;644629;216;31490;-74
2022/06/04 00:24:54;;;;;;;0.50;0.30;;;13.30;1.40;;;14.31;100.00;95410.98;645387;216;31505;-74
2022/06/04 00:27:35;;;;;;;1.87;0.52;;;13.30;1.40;;;14.28;100.00;95409.60;646020;213;31483;-74
2022/06/04 00:30:17;;;;;;;0.55;0.47;;;13.30;1.40;;;14.25;100.00;95398.14;652060;216;42733;-75
2022/06/04 00:32:59;;;;;;;0.50;0.40;;;13.20;1.40;;;14.17;100.00;95390.72;623087;226;31970;-73
2022/06/04 00:35:51;;;;;;;0.60;0.50;;;13.10;1.40;;;14.09;100.00;95392.81;647783;216;31639;-73
2022/06/04 00:44:01;;;;;;;0.90;0.40;;;12.70;1.40;;;13.82;100.00;95376.06;647530;216;31531;-74
2022/06/04 00:47:07;;;;;;;1.40;0.50;;;12.60;1.40;;;13.76;100.00;95375.56;645979;212;42763;-74
2022/06/04 00:49:52;;;;;;;2.30;0.80;;;12.60;1.40;;;13.73;100.00;95370.36;647373;216;39863;-74
2022/06/04 00:52:34;;;;;;;0.70;0.50;;;12.60;1.40;;;13.67;100.00;95374.61;645394;212;32174;-74
2022/06/04 00:55:19;;;;;;;0.70;0.30;;;12.60;1.40;;;13.63;100.00;95378.67;650203;216;42190;-73
2022/06/04 00:58:07;;;;;;;0.90;0.40;;;12.50;1.40;;;13.62;100.00;95378.95;619552;222;36596;-74
2022/06/04 01:00:54;;;;;;;1.20;0.75;;;12.50;1.40;;;13.53;100.00;95383.89;648079;212;31504;-76
2022/06/04 01:03:53;;;;;;;0.70;0.60;;;12.40;1.40;;;13.45;100.00;95391.58;645071;216;38392;-73
2022/06/04 01:06:51;;;;;;;0.77;0.57;;;12.30;1.40;;;13.39;100.00;95388.56;653523;212;31477;-74
2022/06/04 01:09:41;;;;;;;1.30;0.40;;;12.20;1.40;;;13.33;100.00;95390.80;635953;216;31662;-74
2022/06/04 01:12:45;;;;;;;0.65;0.62;;;12.20;1.40;;;13.25;100.00;95389.37;647682;212;35474;-72
2022/06/04 01:15:36;;;;;;;0.60;0.40;;;12.10;1.40;;;13.19;100.00;95384.39;651176;216;31458;-74
2022/06/04 01:21:11;;;;;;;1.30;1.20;;;11.90;1.40;;;13.18;100.00;95390.17;624234;226;32307;-74
2022/06/04 01:24:12;;;;;;;0.90;0.52;;;12.10;1.40;;;13.26;100.00;95385.30;645881;216;31529;-75
2022/06/04 01:27:07;;;;;;;0.60;0.50;;;12.40;1.40;;;13.44;100.00;95389.41;644120;212;31522;-74
2022/06/04 01:29:52;;;;;;;0.80;0.60;;;12.60;1.40;;;13.55;100.00;95386.34;621139;222;32878;-73
2022/06/04 01:32:39;;;;;;;0.40;0.30;;;12.70;1.40;;;13.54;100.00;95384.33;650830;212;31637;-75
2022/06/04 01:36:00;;;;;;;0.50;0.30;;;12.60;1.40;;;13.50;100.00;95385.95;645165;212;32154;-74
2022/06/04 01:38:42;;;;;;;1.05;0.62;;;12.50;1.40;;;13.45;100.00;95376.92;650478;216;42074;-75
2022/06/04 01:41:29;;;;;;;0.70;0.50;;;12.40;1.40;;;13.38;100.00;95384.52;653782;212;32483;-76
2022/06/04 01:46:46;;;;;;;0.60;0.60;;;12.20;1.40;;;13.22;100.00;95387.67;621981;226;38100;-73
2022/06/04 01:49:27;;;;;;;0.90;0.50;;;12.10;1.40;;;13.18;100.00;95388.33;650975;216;31495;-74
2022/06/04 01:54:48;;;;;;;0.50;0.30;;;12.00;1.40;;;13.05;100.00;95397.34;648463;216;32089;-74
2022/06/04 01:57:33;;;;;;;0.70;0.30;;;11.90;1.40;;;13.02;100.00;95391.77;623456;223;32351;-73
2022/06/04 02:00:18;;;;;;;0.40;0.40;;;11.80;1.40;;;12.91;100.00;95386.86;651012;216;31479;-73
2022/06/04 02:03:05;;;;;;;0.90;0.50;;;11.80;1.40;;;12.89;100.00;95386.88;647119;212;32991;-74
2022/06/04 02:05:55;;;;;;;0.75;0.50;;;11.80;1.40;;;12.88;100.00;95384.66;649380;216;31463;-74
2022/06/04 02:08:40;;;;;;;0.60;0.40;;;11.80;1.40;;;12.88;100.00;95387.72;651455;216;32122;-73
2022/06/04 02:11:22;;;;;;;0.60;0.40;;;11.80;1.40;;;12.87;100.00;95384.03;648384;216;31882;-74
2022/06/04 02:14:04;;;;;;;0.40;0.30;;;11.80;1.40;;;12.87;100.00;95380.84;623222;226;31986;-75
2022/06/04 02:16:46;;;;;;;0.80;0.40;;;11.90;1.40;;;12.99;100.00;95373.17;646455;216;32706;-74
2022/06/04 02:19:28;;;;;;;0.80;0.70;;;12.00;1.40;;;12.95;100.00;95369.66;646565;216;31503;-75
2022/06/04 02:22:09;;;;;;;0.50;0.30;;;11.90;1.40;;;12.98;100.00;95374.67;647144;216;32977;-74
2022/06/04 02:24:54;;;;;;;0.60;0.40;;;12.00;1.40;;;13.02;100.00;95375.27;621326;226;31804;-74
2022/06/04 02:27:36;;;;;;;0.70;0.60;;;12.00;1.40;;;12.97;100.00;95374.81;646127;216;32770;-75
2022/06/04 02:30:17;;;;;;;0.70;0.50;;;11.90;1.40;;;12.98;100.00;95372.92;650150;216;31503;-73
2022/06/04 02:36:08;;;;;;;0.52;0.40;;;11.80;1.40;;;12.87;100.00;95374.89;619611;226;31879;-74
2022/06/04 02:39:07;;;;;;;1.00;0.80;;;11.70;1.40;;;12.78;100.00;95378.17;655402;216;31514;-73
2022/06/04 02:41:51;;;;;;;0.90;0.60;;;11.60;1.40;;;12.64;100.00;95383.47;646655;216;36372;-73
2022/06/04 02:44:33;;;;;;;0.68;0.65;;;11.50;1.40;;;12.55;100.00;95383.38;652311;212;31462;-72
2022/06/04 02:47:16;;;;;;;0.80;0.40;;;11.40;1.40;;;12.49;100.00;95379.41;620257;226;32004;-73
2022/06/04 02:50:10;;;;;;;0.60;0.60;;;11.40;1.40;;;12.51;100.00;95377.50;646779;216;31502;-74
2022/06/04 02:52:51;;;;;;;0.50;0.40;;;11.50;1.40;;;12.48;100.00;95377.88;647851;213;31474;-75
2022/06/04 02:55:33;;;;;;;0.68;0.68;;;11.40;1.40;;;12.42;100.00;95372.73;651167;216;32019;-73
2022/06/04 02:58:15;;;;;;;0.50;0.40;;;11.40;1.40;;;12.44;100.00;95374.05;652110;216;31759;-73
2022/06/04 03:00:59;;;;;;;0.50;0.40;;;11.40;1.40;;;12.45;100.00;95375.91;645880;216;31474;-75
2022/06/04 03:03:41;;;;;;;0.40;0.33;;;11.40;1.40;;;12.42;100.00;95379.38;647696;216;32647;-74
2022/06/04 03:06:24;;;;;;;0.50;0.40;;;11.30;1.40;;;12.42;100.00;95389.00;622566;226;31968;-74
2022/06/04 03:09:05;;;;;;;1.00;0.40;;;11.30;1.40;;;12.42;100.00;95391.17;639324;216;32051;-74
2022/06/04 03:11:47;;;;;;;0.60;0.50;;;11.40;1.40;;;12.53;100.00;95392.14;618253;226;31860;-74
2022/06/04 03:14:29;;;;;;;1.45;0.80;;;11.60;1.40;;;12.51;100.00;95393.98;651543;212;42203;-73
2022/06/04 03:17:10;;;;;;;0.50;0.30;;;11.50;1.40;;;12.42;100.00;95395.46;643954;216;32499;-74
2022/06/04 03:19:53;;;;;;;0.80;0.60;;;11.40;1.40;;;12.35;100.00;95406.13;643766;212;31499;-73
2022/06/04 03:22:34;;;;;;;0.52;0.30;;;11.40;1.40;;;12.31;100.00;95409.66;646404;212;32817;-73
2022/06/04 03:25:16;;;;;;;0.40;0.30;;;11.30;1.40;;;12.27;100.00;95407.53;648993;216;31466;-74
2022/06/04 03:27:58;;;;;;;10.40;0.60;;;11.30;1.40;;;12.25;100.00;95408.06;647588;212;31603;-75
2022/06/04 03:30:40;;;;;;;0.50;0.47;;;11.20;1.40;;;12.18;100.00;95415.02;644438;216;31537;-74
2022/06/04 03:35:54;;;;;;;0.50;0.40;;;11.10;1.40;;;12.15;100.00;95407.89;645659;216;35517;-74
2022/06/04 03:38:36;;;;;;;0.60;0.60;;;11.20;1.40;;;12.19;100.00;95402.66;648623;216;31516;-74
2022/06/04 03:41:18;;;;;;;0.60;0.50;;;11.20;1.40;;;12.23;100.00;95401.77;650416;216;32221;-74
2022/06/04 03:43:59;;;;;;;0.70;0.70;;;11.20;1.40;;;12.23;100.00;95406.99;652936;216;31489;-74
2022/06/04 03:46:41;;;;;;;0.40;0.30;;;11.20;1.40;;;12.23;100.00;95403.66;649321;216;31502;-73
2022/06/04 03:49:23;;;;;;;0.80;0.57;;;11.10;1.40;;;12.30;100.00;95409.71;650385;216;31517;-74
2022/06/04 04:00:34;;;;;;;0.50;0.40;;;11.30;1.40;;;12.48;100.00;95427.41;648413;216;31552;-75
2022/06/04 04:03:16;;;;;;;0.50;0.50;;;11.40;1.40;;;12.52;100.00;95426.70;646509;212;31462;-75
2022/06/04 04:08:32;;;;;;;0.50;0.50;;;11.50;1.40;;;12.63;100.00;95445.02;645376;212;31702;-76
2022/06/04 04:11:14;;;;;;;0.40;0.30;;;11.60;1.40;;;12.57;100.00;95445.10;652800;216;32483;-74
2022/06/04 04:13:55;;;;;;;1.00;0.50;;;11.60;1.40;;;12.56;100.00;95439.46;645845;216;31557;-74
2022/06/04 04:16:37;;;;;;;0.40;0.20;;;11.60;1.40;;;12.64;100.00;95439.28;647842;216;31472;-74
2022/06/04 04:19:19;;;;;;;1.07;0.80;;;11.60;1.40;;;12.72;100.00;95433.30;649732;216;31449;-73
2022/06/04 04:24:35;;;;;;;0.60;0.43;;;11.80;1.40;;;12.76;100.00;95426.00;647156;216;33483;-74
2022/06/04 04:27:20;;;;;;;1.20;0.83;;;11.80;1.40;;;12.85;100.00;95421.55;645163;212;31480;-74
2022/06/04 04:30:03;;;;;;;1.80;0.50;;;11.90;1.40;;;12.96;100.00;95419.31;625723;226;32304;-73
2022/06/04 04:32:44;;;;;;;1.00;0.60;;;12.00;1.40;;;13.08;100.00;95415.36;651797;212;33070;-74
2022/06/04 04:35:51;;;;;;;1.10;0.60;;;12.10;1.40;;;13.19;100.00;95411.43;646526;212;31586;-73
2022/06/04 04:38:33;;;;;;;0.40;0.40;;;12.20;1.40;;;13.26;100.00;95411.63;648572;212;31597;-74
2022/06/04 04:41:14;;;;;;;0.50;0.40;;;12.10;1.40;;;13.33;100.00;95403.21;646193;216;34779;-74
2022/06/04 04:43:56;;;;;;;1.20;0.80;;;12.20;1.40;;;13.41;100.00;95400.62;620038;222;42459;-74
2022/06/04 04:46:38;;;;;;;1.20;0.50;;;12.30;1.40;;;13.48;100.00;95397.17;646800;216;42386;-73
2022/06/04 04:49:20;;;;;;;2.37;1.20;;;12.30;1.40;;;13.59;100.00;95393.47;621372;226;36720;-73
2022/06/04 04:52:05;;;;;;;1.62;0.80;;;12.60;1.40;;;13.74;100.00;95397.35;649449;216;32191;-74
2022/06/04 04:54:46;;;;;;;1.10;0.70;;;12.80;1.40;;;13.81;100.00;95406.09;645634;212;41309;-73
2022/06/04 04:57:28;;;;;;;0.70;0.40;;;12.80;1.40;;;13.91;100.00;95403.98;654352;212;34976;-73
2022/06/04 05:00:10;;;;;;;0.80;0.43;;;13.00;1.40;;;14.00;100.00;95409.69;646927;212;31517;-75
2022/06/04 05:02:52;;;;;;;0.90;0.70;;;13.10;1.40;;;14.15;100.00;95417.02;647872;216;42097;-76
2022/06/04 05:05:34;;;;;;;0.68;0.50;;;13.20;1.40;;;14.28;100.00;95419.61;623658;222;32367;-74
2022/06/04 05:08:15;;;;;;;0.82;0.52;;;13.30;1.40;;;14.48;100.00;95421.92;642205;212;31677;-75
2022/06/04 05:10:57;;;;;;;1.08;0.90;;;13.60;1.40;;;14.62;100.00;95425.21;653317;212;31494;-76
2022/06/04 05:13:39;;;;;;;1.25;0.65;;;13.70;1.40;;;14.78;100.00;95426.71;646369;216;31483;-75
2022/06/04 05:16:20;;;;;;;0.75;0.60;;;13.90;1.40;;;14.98;100.00;95430.72;647440;212;31739;-74
2022/06/04 05:19:02;;;;;;;0.70;0.70;;;14.00;1.40;;;15.16;100.00;95429.31;618472;226;42493;-74
2022/06/04 05:21:45;;;;;;;0.70;0.50;;;14.20;1.40;;;15.29;100.00;95425.70;651666;216;31487;-74
2022/06/04 05:27:04;;;;;;;1.40;1.30;;;14.50;1.40;;;15.56;100.00;95425.45;646934;212;31491;-74
2022/06/04 05:29:46;;;;;;;0.52;0.50;;;14.60;1.40;;;15.66;100.00;95428.63;619041;222;31933;-76
2022/06/04 05:32:28;;;;;;;0.80;0.60;;;14.70;1.40;;;15.71;100.00;95431.22;623810;226;32396;-74
2022/06/04 05:35:51;;;;;;;1.12;0.70;;;14.80;1.40;;;15.92;100.00;95428.13;651604;216;32156;-74
2022/06/04 05:38:34;;;;;;;0.63;0.63;;;15.00;1.40;;;16.02;100.00;95426.09;648741;216;42099;-75
2022/06/04 05:41:14;;;;;;;1.00;0.80;;;15.10;1.40;;;16.18;100.00;95427.55;647611;216;31492;-74
2022/06/04 05:43:59;;;;;;;1.20;1.00;;;15.30;1.40;;;16.26;100.00;95419.83;651816;216;31462;-74
2022/06/04 05:46:42;;;;;;;0.88;0.57;;;15.30;1.40;;;16.23;100.00;95421.39;646662;216;31499;-73
2022/06/04 05:49:26;;;;;;;1.67;0.82;;;15.20;1.40;;;16.24;100.00;95425.72;649008;216;31475;-75
2022/06/04 05:52:08;;;;;;;0.60;0.47;;;15.20;1.40;;;16.44;100.00;95425.19;651553;212;31517;-76
2022/06/04 05:54:49;;;;;;;1.10;0.80;;;15.50;1.40;;;16.65;100.00;95431.47;650496;216;31495;-77
2022/06/04 05:57:31;;;;;;;0.70;0.50;;;15.60;1.40;;;16.77;100.00;95426.89;621919;222;32081;-75
2022/06/04 06:00:17;;;;;;;0.60;0.50;;;15.70;1.40;;;16.67;100.00;95428.92;648639;212;31505;-77
2022/06/04 06:02:59;;;;;;;2.10;0.82;;;15.70;1.40;;;16.86;100.00;95432.42;646625;212;31924;-75
2022/06/04 06:05:42;;;;;;;0.60;0.50;;;15.80;1.40;;;16.99;100.00;95433.60;646298;216;31564;-75
2022/06/04 06:08:24;;;;;;;0.65;0.60;;;16.00;1.40;;;17.33;100.00;95437.84;645559;212;31675;-76
2022/06/04 06:11:06;;;;;;;0.70;0.50;;;16.20;1.40;;;17.52;100.00;95443.20;646653;216;31490;-75
2022/06/04 06:13:48;;;;;;;1.00;0.60;;;16.40;1.40;;;17.73;100.00;95449.77;646006;216;31476;-75
2022/06/04 06:16:30;;;;;;;0.60;0.50;;;16.40;1.40;;;18.00;100.00;95449.64;650118;216;31471;-75
2022/06/04 06:19:11;;;;;;;1.20;0.50;;;16.60;1.40;;;18.15;100.00;95461.11;645642;212;31663;-75
2022/06/04 06:21:53;;;;;;;0.90;0.70;;;16.80;1.40;;;18.39;100.00;95463.91;647408;216;31479;-74
2022/06/04 06:24:35;;;;;;;0.70;0.70;;;16.90;1.40;;;18.74;100.00;95471.69;651845;216;31488;-75
2022/06/04 06:27:20;;;;;;;0.40;0.40;;;17.10;1.40;;;18.89;100.00;95472.75;644632;212;31551;-75
2022/06/04 06:30:01;;;;;;;1.15;0.50;;;17.20;1.40;;;18.86;100.00;95477.73;620371;222;31937;-75
2022/06/04 06:32:43;;;;;;;0.75;0.70;;;17.10;1.40;;;18.72;100.00;95478.03;651595;216;31761;-75
2022/06/04 06:35:56;;;;;;;0.50;0.40;;;17.10;1.40;;;18.96;100.00;95479.14;651460;212;31475;-75
2022/06/04 06:38:38;;;;;;;0.70;0.70;;;17.10;1.40;;;19.11;100.00;95483.56;648670;216;31521;-75
2022/06/04 06:41:20;;;;;;;0.50;0.50;;;17.20;1.40;;;19.20;100.00;95486.09;645410;212;31547;-76
2022/06/04 06:44:01;;;;;;;1.55;0.65;;;17.30;1.40;;;19.30;100.00;95489.97;654374;216;42187;-74
2022/06/04 06:46:43;;;;;;;1.00;0.90;;;17.40;1.40;;;19.41;100.00;95486.14;623515;222;42544;-75
2022/06/04 06:49:26;;;;;;;1.30;1.02;;;17.40;1.40;;;19.66;100.00;95493.11;651109;212;42944;-74
2022/06/04 06:52:08;;;;;;;1.87;0.62;;;17.60;1.40;;;19.75;100.00;95490.38;648256;216;31562;-76
2022/06/04 06:54:48;;;;;;;1.30;0.95;;;17.80;1.40;;;19.95;100.00;95496.98;647706;216;42110;-75
2022/06/04 06:57:30;;;;;;;2.70;1.00;;;17.70;1.40;;;19.84;100.00;95509.17;647258;216;31477;-76
2022/06/04 07:00:12;;;;;;;1.30;0.90;;;17.70;1.40;;;19.77;100.00;95507.22;652155;216;31497;-75
2022/06/04 07:02:54;;;;;;;0.88;0.65;;;17.90;1.40;;;19.86;100.00;95506.45;645825;212;31481;-75
2022/06/04 07:05:37;;;;;;;0.80;0.70;;;18.00;1.40;;;19.72;100.00;95518.33;618129;226;42660;-73
2022/06/04 07:08:18;;;;;;;0.70;0.50;;;17.90;1.40;;;19.80;100.00;95520.88;643577;216;31644;-72
2022/06/04 07:11:02;;;;;;;0.80;0.80;;;17.90;1.40;;;19.55;100.00;95527.84;650210;212;31666;-73
2022/06/04 07:13:44;;;;;;;0.57;0.50;;;17.60;1.40;;;19.50;100.00;95545.44;651384;216;31575;-73
2022/06/04 07:16:26;;;;;;;0.70;0.70;;;17.60;1.40;;;19.26;100.00;95580.41;626984;222;31922;-74
2022/06/04 07:19:11;;;;;;;1.37;0.50;;;17.50;1.40;;;19.34;100.00;95595.13;644885;212;31636;-73
2022/06/04 07:21:52;;;;;;;0.60;0.60;;;17.70;1.40;;;19.35;100.00;95596.44;626826;222;31900;-73
2022/06/04 07:24:35;;;;;;;1.27;1.07;;;17.70;1.40;;;19.57;100.00;95595.25;646739;216;42115;-75
2022/06/04 07:27:19;;;;;;;0.90;0.80;;;17.70;1.40;;;19.44;100.00;95612.32;646616;216;32671;-76
2022/06/04 07:30:01;;;;;;;2.80;0.80;;;17.60;1.40;;;19.50;100.00;95612.52;624203;226;32085;-75
2022/06/04 07:32:42;;;;;;;0.80;0.40;;;17.50;1.40;;;19.38;100.00;95611.08;643812;215;31468;-77
2022/06/04 07:35:51;;;;;;;0.60;0.50;;;17.40;1.40;;;19.24;100.00;95603.42;652359;212;31565;-77
2022/06/04 07:38:33;;;;;;;0.60;0.60;;;17.40;1.40;;;19.26;100.00;95602.97;648440;212;32019;-76
2022/06/04 07:41:23;;;;;;;0.90;0.50;;;17.30;1.40;;;19.13;100.00;95583.47;645622;216;31486;-77
2022/06/04 07:44:11;;;;;;;1.35;0.55;;;17.40;1.40;;;19.07;100.00;95581.40;649164;216;31542;-75
2022/06/04 07:46:52;;;;;;;1.00;0.90;;;17.40;1.40;;;19.04;100.00;95585.39;653708;216;42096;-76
2022/06/04 07:49:37;;;;;;;1.30;1.00;;;17.30;1.40;;;18.94;100.00;95584.98;618624;222;42531;-76
2022/06/04 07:52:19;;;;;;;0.80;0.50;;;17.30;1.40;;;19.01;100.00;95586.84;622643;222;31815;-76
2022/06/04 07:55:00;;;;;;;0.98;0.73;;;17.30;1.40;;;19.33;100.00;95586.22;651512;216;31490;-75
2022/06/04 07:57:43;;;;;;;0.70;0.60;;;17.50;1.40;;;19.52;100.00;95585.03;651391;216;42220;-75
2022/06/04 08:00:25;;;;;;;0.70;0.50;;;17.80;1.40;;;20.01;100.00;95571.41;644093;216;42692;-75
2022/06/04 08:03:07;;;;;;;0.98;0.40;;;18.10;1.40;;;20.59;100.00;95571.98;651603;212;31663;-75
2022/06/04 08:05:48;;;;;;;0.50;0.30;;;18.40;1.40;;;20.59;100.00;95574.80;649051;212;31605;-74
2022/06/04 08:08:32;;;;;;;0.60;0.57;;;18.10;1.40;;;20.76;100.00;95566.39;639841;216;42277;-75
2022/06/04 08:13:52;;;;;;;0.70;0.50;;;18.40;1.40;;;20.80;100.00;95562.11;645330;216;31540;-75
2022/06/04 08:16:34;;;;;;;1.70;0.80;;;18.60;1.40;;;21.03;100.00;95557.70;650684;212;32087;-75
2022/06/04 08:19:15;;;;;;;0.52;0.40;;;18.70;1.40;;;21.16;100.00;95552.48;646152;212;31670;-74
2022/06/04 08:21:57;;;;;;;1.00;0.50;;;18.80;1.40;;;21.22;100.00;95544.31;648107;216;31475;-74
2022/06/04 08:24:40;;;;;;;2.08;0.88;;;18.60;1.40;;;21.30;100.00;95542.50;650522;216;31627;-74
2022/06/04 08:27:24;;;;;;;0.90;0.57;;;18.90;1.40;;;21.34;100.00;95535.18;651417;216;32374;-74
2022/06/04 08:30:07;;;;;;;0.80;0.70;;;19.10;1.40;;;21.92;100.00;95523.01;652071;212;32308;-74
2022/06/04 08:32:48;;;;;;;0.70;0.60;;;19.50;1.40;;;22.07;100.00;95527.08;647199;216;31942;-74
2022/06/04 08:35:51;;;;;;;0.77;0.40;;;19.30;1.40;;;21.49;100.00;95518.64;618976;226;31850;-74
2022/06/04 08:38:37;;;;;;;1.10;0.70;;;19.40;1.40;;;21.59;100.00;95523.74;645420;216;31485;-74
2022/06/04 08:41:24;;;;;;;1.48;1.20;;;19.80;1.40;;;21.90;100.00;95528.00;645550;212;31486;-73
2022/06/04 08:44:06;;;;;;;1.00;0.65;;;20.10;1.40;;;21.92;100.00;95525.49;650392;216;31470;-74
2022/06/04 08:46:51;;;;;;;0.60;0.50;;;20.60;1.40;;;22.36;100.00;95522.27;647357;212;31629;-75
2022/06/04 08:49:36;;;;;;;1.70;0.98;;;20.70;1.40;;;22.36;100.00;95519.81;647345;216;31503;-75
2022/06/04 08:52:21;;;;;;;1.02;0.60;;;20.70;1.40;;;22.43;100.00;95515.58;652571;216;32295;-75
2022/06/04 08:57:53;;;;;;;0.95;0.90;;;20.80;1.40;;;22.50;100.00;95508.07;651609;212;31582;-75
2022/06/04 09:00:43;;;;;;;0.70;0.50;;;21.20;1.40;;;23.31;100.00;95512.44;618044;225;31903;-74
2022/06/04 09:03:27;;;;;;;1.00;0.60;;;22.10;1.40;;;23.68;100.00;95516.56;625733;222;42480;-75
2022/06/04 09:06:18;;;;;;;2.30;0.70;;;22.10;1.40;;;23.68;100.00;95523.55;645647;216;31477;-73
2022/06/04 09:09:03;;;;;;;1.00;0.90;;;22.10;1.40;;;23.78;100.00;95528.75;646308;216;31473;-74
2022/06/04 09:11:53;;;;;;;0.80;0.70;;;22.40;1.40;;;23.84;100.00;95532.28;648994;212;31608;-74
2022/06/04 09:14:39;;;;;;;1.40;0.90;;;22.70;1.40;;;24.38;100.00;95524.94;648269;216;34113;-74
2022/06/04 09:17:36;;;;;;;0.82;0.82;;;23.00;1.40;;;24.45;100.00;95540.09;615601;226;32488;-75
2022/06/04 09:20:32;;;;;;;0.75;0.70;;;22.80;1.40;;;23.97;100.00;95533.03;650702;216;31471;-74
2022/06/04 09:23:17;;;;;;;1.85;1.00;;;22.30;1.40;;;23.91;100.00;95533.37;651583;216;31476;-75
2022/06/04 09:26:04;;;;;;;0.90;0.90;;;22.50;1.40;;;24.34;100.00;95537.01;649060;212;31793;-74
2022/06/04 09:29:11;;;;;;;0.60;0.50;;;22.60;1.40;;;23.85;100.00;95546.92;649285;216;31527;-75
2022/06/04 09:32:03;;;;;;;2.40;0.68;;;22.90;1.40;;;24.11;100.00;95546.67;645322;216;32109;-74
2022/06/04 09:35:51;;;;;;;1.25;0.80;;;25.90;1.40;;;25.86;100.00;95543.86;654594;212;33528;-73
2022/06/04 09:41:18;;;;;;;0.70;0.60;;;27.70;1.40;;;27.88;88.68;95540.38;620770;222;31948;-76
2022/06/04 09:46:13;;;;;;;1.60;0.70;;;27.50;1.40;;;29.10;89.92;95533.83;646047;212;31538;-75
2022/06/04 09:48:55;;;;;;;1.60;0.80;;;28.50;1.40;;;27.39;80.32;95542.73;646285;216;31494;-75
2022/06/04 09:51:36;;;;;;;1.00;0.80;;;25.10;1.40;;;27.14;93.26;95541.73;649360;216;31685;-74
2022/06/04 09:54:24;;;;;;;1.02;0.65;;;24.90;1.40;;;26.78;91.81;95541.80;646688;216;31675;-75
2022/06/04 09:57:08;;;;;;;1.70;0.88;;;26.80;1.40;;;27.39;94.41;95537.86;652039;216;31490;-74
2022/06/04 09:59:53;;;;;;;1.27;0.80;;;27.60;1.40;;;27.34;88.05;95543.38;645663;216;32360;-75
2022/06/04 10:02:35;;;;;;;1.00;0.73;;;27.00;1.40;;;27.74;85.71;95541.57;645973;212;31677;-74
2022/06/04 10:05:18;;;;;;;1.73;1.10;;;27.60;1.40;;;28.83;79.89;95541.08;619588;226;32148;-74
2022/06/04 10:08:11;;;;;;;1.40;0.85;;;28.30;1.40;;;29.76;80.21;95532.84;640445;215;31940;-76
2022/06/04 10:16:22;;;;;;;1.10;0.80;;;27.80;1.40;;;30.75;75.35;95526.28;653817;216;31582;-74
2022/06/04 10:19:16;;;;;;;0.85;0.70;;;28.30;1.40;;;31.21;67.82;95528.23;645965;216;31667;-77
2022/06/04 10:22:09;;;;;;;2.50;1.08;;;28.60;1.40;;;30.21;78.59;95530.52;650018;212;32109;-74
2022/06/04 10:24:53;;;;;;;1.90;1.00;;;29.00;1.40;;;32.26;70.55;95518.97;644385;212;31524;-75
2022/06/04 10:28:08;;;;;;;1.00;0.90;;;29.90;1.40;;;30.89;67.16;95527.72;645312;212;31645;-75
2022/06/04 10:31:09;;;;;;;1.40;1.30;;;28.80;1.40;;;30.23;68.76;95526.00;621566;222;32004;-75
2022/06/04 10:39:01;;;;;;;2.67;1.08;;;29.40;1.40;;;33.13;64.27;95514.05;652204;216;31530;-75
2022/06/04 10:44:44;;;;;;;1.30;0.80;;;29.20;1.40;;;32.36;62.47;95511.00;647301;216;31485;-75
2022/06/04 10:47:32;;;;;;;1.20;1.10;;;29.50;1.40;;;34.16;58.87;95503.37;647982;212;31902;-76
2022/06/04 10:50:27;;;;;;;1.60;1.00;;;29.80;1.40;;;33.01;55.09;95499.77;619950;222;31958;-75
2022/06/04 10:53:10;;;;;;;1.60;1.00;;;29.50;1.40;;;34.28;63.45;95496.55;617198;226;31855;-75
2022/06/04 10:55:54;;;;;;;1.00;1.00;;;30.10;1.40;;;35.23;59.88;95501.98;651058;216;31557;-75
2022/06/04 10:58:38;;;;;;;1.15;1.05;;;30.60;1.40;;;34.84;54.46;95493.53;652994;212;42120;-75
2022/06/04 11:01:31;;;;;;;2.47;1.20;;;30.00;1.40;;;33.85;56.17;95494.39;621646;226;31902;-75
2022/06/04 11:04:37;;;;;;;1.52;1.00;;;29.40;1.40;;;34.51;56.52;95487.84;642031;220;31651;-76
2022/06/04 11:07:41;;;;;;;1.50;0.90;;;30.10;1.40;;;34.33;54.07;95484.75;649153;216;31590;-75
2022/06/04 11:10:24;;;;;;;1.80;1.10;;;29.80;1.40;;;33.73;55.53;95484.59;650529;216;32101;-75
2022/06/04 11:13:30;;;;;;;1.55;1.30;;;29.60;1.40;;;35.39;52.91;95475.91;643805;212;42184;-75
2022/06/04 11:16:21;;;;;;;1.40;1.23;;;29.80;1.40;;;34.81;51.79;95476.98;651578;216;31522;-75
2022/06/04 11:19:07;;;;;;;3.10;0.93;;;30.00;1.40;;;35.84;51.23;95476.88;652871;212;31955;-75
2022/06/04 11:21:57;;;;;;;1.25;1.15;;;30.60;1.40;;;36.97;49.40;95470.27;647870;216;31540;-75
2022/06/04 11:24:42;;;;;;;3.78;1.40;;;30.60;1.40;;;37.59;47.86;95470.25;644838;212;31527;-75
2022/06/04 11:27:30;;;;;;;2.62;1.45;;;31.00;1.40;;;37.64;45.84;95463.88;650190;216;31618;-75
2022/06/04 11:30:13;;;;;;;1.95;1.15;;;30.30;1.40;;;35.39;50.13;95472.03;652738;216;31594;-75
2022/06/04 11:35:55;;;;;;;2.08;1.50;;;30.70;1.40;;;37.56;49.20;95463.69;648917;212;31648;-75
2022/06/04 11:38:54;;;;;;;1.42;1.33;;;30.50;1.40;;;36.13;47.30;95469.30;647539;212;31553;-75
2022/06/04 11:41:40;;;;;;;1.10;1.00;;;30.10;1.40;;;35.49;48.70;95467.83;620246;226;32522;-75
2022/06/04 11:44:41;;;;;;;1.77;1.20;;;29.70;1.40;;;35.82;48.87;95464.17;646320;212;31674;-75
2022/06/04 11:47:46;;;;;;;1.40;1.30;;;30.00;1.40;;;36.37;48.03;95463.22;646525;216;31547;-75
2022/06/04 11:53:24;;;;;;;1.40;1.30;;;30.50;1.40;;;37.69;46.66;95455.48;648385;216;31829;-76
2022/06/04 11:56:07;;;;;;;1.50;1.20;;;31.10;1.40;;;37.09;45.32;95456.31;649374;216;32112;-75
2022/06/04 11:59:28;;;;;;;1.70;1.45;;;30.30;1.40;;;35.76;47.40;95463.26;643074;212;31954;-75
2022/06/04 12:04:52;;;;;;;1.20;1.10;;;29.30;1.40;;;35.08;50.50;95457.66;655222;216;31551;-75
2022/06/04 12:07:41;;;;;;;1.20;1.10;;;29.80;1.40;;;35.59;49.35;95460.72;645345;216;32397;-75
2022/06/04 12:10:29;;;;;;;1.75;1.45;;;29.70;1.40;;;36.92;47.79;95457.40;650350;212;31551;-76
2022/06/04 12:13:31;;;;;;;1.40;1.17;;;30.40;1.40;;;38.47;45.17;95455.72;646772;216;31545;-75
2022/06/04 12:16:17;;;;;;;2.65;1.20;;;30.50;1.40;;;38.86;43.60;95456.30;647695;216;31509;-76
2022/06/04 12:19:00;;;;;;;2.20;1.30;;;31.10;1.40;;;39.79;41.35;95458.77;646854;216;31587;-75
2022/06/04 12:24:40;;;;;;;2.00;1.20;;;30.50;1.40;;;38.64;41.09;95452.98;649509;216;31510;-76
2022/06/04 12:27:22;;;;;;;1.33;1.20;;;30.60;1.40;;;38.30;43.82;95456.57;647551;212;31485;-75
2022/06/04 12:30:10;;;;;;;2.58;1.05;;;30.80;1.40;;;39.35;40.11;95454.50;646641;212;31493;-75
2022/06/04 12:32:55;;;;;;;1.60;0.88;;;31.00;1.40;;;38.48;39.64;95458.34;626555;222;31836;-75
2022/06/04 12:35:54;;;;;;;1.23;0.93;;;30.50;1.40;;;38.21;39.05;95465.59;654997;212;33054;-76
2022/06/04 12:38:37;;;;;;;0.90;0.80;;;30.50;1.40;;;37.81;40.31;95468.56;646737;212;31671;-75
2022/06/04 12:41:21;;;;;;;1.42;1.00;;;30.30;1.40;;;37.71;41.28;95466.86;646710;216;31978;-76
2022/06/04 12:44:06;;;;;;;1.20;1.00;;;30.70;1.40;;;37.90;39.78;95466.95;623723;222;31867;-75
2022/06/04 12:46:49;;;;;;;1.50;1.20;;;30.50;1.40;;;36.50;43.23;95471.30;649074;212;31470;-75
2022/06/04 12:49:38;;;;;;;2.30;1.30;;;30.10;1.40;;;38.36;43.28;95469.46;647303;212;31684;-75
2022/06/04 12:52:27;;;;;;;1.02;1.00;;;30.30;1.40;;;37.35;41.07;95469.47;626535;225;31888;-75
2022/06/04 12:55:44;;;;;;;1.30;1.20;;;30.10;1.40;;;36.58;41.18;95473.22;653942;216;31534;-75